TRPG METAR and TAF | Updated Today

TRPG METAR

John A. Osborne Airport

Observation time: 21 min. ago

TRPG 011500Z 08012KT 9999 FEW019 26/21 Q1019

Need help? Read our tutorial on how to read METARs or read the parsed version below.

John A. Osborne Airport (TRPG) METAR

  • Weather conditions on Wed, 01 Feb 2023 15:00:00 +0000 (21 min. ago):
  • Present conditions: Dry
  • Clouds: A few at 579 meters
  • Visibility: Greater than 10 km
  • Wind: 80 degrees at 12 knots
  • Temperature: 26 celsius
  • Dew point: 21 celsius
  • Pressure: 1019 millibars
  • Remarks: None


Useful to know...

TRPG TAF

John A. Osborne Airport

TAF TRPG 011100Z 0112/0212 06010KT 9999 SCT019 SCT038 PROB40 TEMPO 0112/0118 SHRA BKN014 PROB30 TEMPO 0204/0210 SHRA
Observation time: 4:21 hr. ago
Need help? Read our tutorial on how to read TAFs or read the parsed version below.

Parsed version of TAF for John A. Osborne Airport (TRPG)

  • From 01 February at 12:00 UTC, to day 02 of the month at 12:00 UTC
  • Clouds: Scattered at 579 meters; scattered at 1158 meters
  • Visibility: Greater than 10 km
  • Wind: 60 degrees at 10
  • Expected to arise temporarily, from 01 February at 12:00 UTC, to day 01 of the month at 18:00 UTC
    Probability of 40%
  • Clouds: Broken sky at 427 meters
  • Expected to arise temporarily, from 02 February at 04:00 UTC, to day 02 of the month at 10:00 UTC
    Probability of 30%